createdAt,value
2022-09-24T00:01:41.187Z,6.50
2022-09-24T00:04:12.395Z,7.40
2022-09-24T00:06:46.550Z,7.70
2022-09-24T00:09:17.094Z,8.13
2022-09-24T00:11:45.524Z,7.30
2022-09-24T00:14:13.048Z,6.97
2022-09-24T00:16:41.507Z,8.10
2022-09-24T00:19:08.508Z,7.20
2022-09-24T00:21:37.611Z,7.00
2022-09-24T00:24:34.206Z,7.87
2022-09-24T00:27:02.990Z,7.00
2022-09-24T00:29:34.373Z,8.30
2022-09-24T00:32:02.662Z,7.10
2022-09-24T00:34:30.081Z,7.13
2022-09-24T00:36:57.168Z,7.20
2022-09-24T00:39:24.128Z,7.97
2022-09-24T00:41:51.069Z,7.23
2022-09-24T00:44:45.650Z,7.20
2022-09-24T00:47:29.164Z,6.20
2022-09-24T00:50:06.292Z,6.60
2022-09-24T00:52:37.494Z,7.30
2022-09-24T00:55:05.004Z,7.33
2022-09-24T00:57:32.838Z,7.23
2022-09-24T00:59:59.955Z,6.90
2022-09-24T01:02:26.959Z,7.10
2022-09-24T01:04:56.650Z,7.00
2022-09-24T01:07:23.824Z,7.60
2022-09-24T01:09:50.753Z,7.27
2022-09-24T01:12:35.431Z,6.83
2022-09-24T01:15:22.831Z,8.60
2022-09-24T01:18:22.720Z,7.90
2022-09-24T01:21:25.447Z,7.47
2022-09-24T01:24:17.743Z,6.60
2022-09-24T01:27:13.917Z,7.80
2022-09-24T01:30:06.098Z,7.57
2022-09-24T01:32:56.290Z,7.50
2022-09-24T01:35:29.047Z,7.47
2022-09-24T01:38:01.577Z,7.37
2022-09-24T01:40:30.494Z,7.80
2022-09-24T01:42:59.601Z,7.87
2022-09-24T01:45:31.478Z,8.80
2022-09-24T01:48:02.261Z,8.47
2022-09-24T01:50:37.148Z,7.90
2022-09-24T01:53:28.731Z,6.80
2022-09-24T01:56:05.202Z,8.30
2022-09-24T01:58:49.489Z,8.93
2022-09-24T02:01:25.277Z,8.50
2022-09-24T02:03:58.725Z,8.90
2022-09-24T02:06:36.181Z,7.10
2022-09-24T02:09:03.478Z,8.87
2022-09-24T02:11:33.061Z,9.07
2022-09-24T02:14:07.856Z,7.20
2022-09-24T02:16:40.910Z,8.37
2022-09-24T02:19:13.344Z,8.50
2022-09-24T02:21:41.666Z,8.60
2022-09-24T02:24:17.104Z,7.90
2022-09-24T02:26:44.073Z,7.10
2022-09-24T02:29:11.911Z,6.57
2022-09-24T02:31:43.742Z,7.03
2022-09-24T02:34:23.442Z,8.00
2022-09-24T02:36:59.617Z,8.17
2022-09-24T02:39:27.233Z,8.50
2022-09-24T02:41:54.997Z,7.30
2022-09-24T02:44:22.370Z,7.30
2022-09-24T02:46:50.215Z,7.60
2022-09-24T02:49:17.878Z,7.67
2022-09-24T02:51:45.353Z,8.00
2022-09-24T02:54:12.510Z,7.37
2022-09-24T02:56:39.841Z,8.70
2022-09-24T02:59:07.724Z,8.10
2022-09-24T03:01:35.271Z,7.50
2022-09-24T03:04:02.824Z,7.07
2022-09-24T03:06:30.496Z,7.50
2022-09-24T03:08:58.354Z,7.67
2022-09-24T03:11:25.880Z,7.90
2022-09-24T03:13:52.926Z,7.60
2022-09-24T03:16:19.923Z,8.97
2022-09-24T03:18:48.120Z,7.43
2022-09-24T03:21:18.364Z,7.73
2022-09-24T03:23:45.661Z,7.70
2022-09-24T03:26:13.625Z,9.37
2022-09-24T03:28:40.861Z,8.10
2022-09-24T03:31:08.894Z,7.27
2022-09-24T03:33:38.900Z,8.40
2022-09-24T03:36:11.211Z,9.00
2022-09-24T03:38:40.239Z,9.20
2022-09-24T03:41:08.513Z,9.07
2022-09-24T03:43:37.095Z,8.40
2022-09-24T03:46:06.948Z,9.10
2022-09-24T03:48:36.274Z,8.43
2022-09-24T03:51:12.654Z,8.17
2022-09-24T03:53:40.173Z,7.80
2022-09-24T03:56:08.625Z,8.30
2022-09-24T03:58:37.987Z,7.53
2022-09-24T04:01:09.683Z,7.90
2022-09-24T04:03:37.093Z,7.63
2022-09-24T04:06:05.767Z,7.30
2022-09-24T04:08:33.137Z,8.23
2022-09-24T04:11:00.170Z,7.90
2022-09-24T04:13:27.103Z,7.30
2022-09-24T04:15:55.048Z,7.67
2022-09-24T04:18:22.592Z,6.90
2022-09-24T04:20:49.703Z,7.67
2022-09-24T04:23:16.749Z,7.67
2022-09-24T04:25:44.263Z,7.27
2022-09-24T04:28:12.020Z,7.17
2022-09-24T04:30:39.436Z,7.13
2022-09-24T04:33:08.021Z,7.27
2022-09-24T04:35:36.289Z,8.43
2022-09-24T04:38:05.094Z,7.37
2022-09-24T04:40:32.768Z,7.53
2022-09-24T04:42:59.882Z,8.07
2022-09-24T04:45:26.974Z,7.60
2022-09-24T04:47:57.439Z,7.37
2022-09-24T04:50:30.549Z,7.77
2022-09-24T04:52:57.459Z,7.87
2022-09-24T04:55:25.432Z,7.20
2022-09-24T04:57:52.372Z,7.67
2022-09-24T05:00:21.168Z,8.33
2022-09-24T05:02:56.252Z,8.60
2022-09-24T05:05:23.344Z,7.77
2022-09-24T05:07:51.242Z,7.20
2022-09-24T05:10:18.781Z,7.87
2022-09-24T05:12:45.665Z,6.87
2022-09-24T05:15:12.687Z,7.33
2022-09-24T05:17:40.751Z,7.23
2022-09-24T05:20:11.237Z,6.70
2022-09-24T05:22:46.059Z,7.87
2022-09-24T05:25:15.217Z,8.33
2022-09-24T05:27:54.331Z,6.90
2022-09-24T05:30:24.078Z,7.47
2022-09-24T05:32:54.320Z,7.30
2022-09-24T05:35:23.398Z,7.43
2022-09-24T05:37:53.231Z,6.80
2022-09-24T05:40:39.668Z,7.47
2022-09-24T05:43:06.660Z,8.23
2022-09-24T05:45:33.598Z,8.03
2022-09-24T05:48:00.656Z,7.17
2022-09-24T05:50:27.992Z,10.07
2022-09-24T05:52:54.951Z,7.00
2022-09-24T05:55:21.890Z,8.30
2022-09-24T05:57:49.203Z,7.03
2022-09-24T06:00:16.449Z,7.57
2022-09-24T06:02:43.461Z,7.20
2022-09-24T06:05:11.486Z,7.47
2022-09-24T06:07:38.621Z,8.27
2022-09-24T06:10:07.651Z,7.00
2022-09-24T06:12:34.972Z,7.17
2022-09-24T06:15:02.927Z,7.10
2022-09-24T06:17:31.390Z,7.60
2022-09-24T06:19:58.385Z,7.80
2022-09-24T06:22:28.537Z,7.37
2022-09-24T06:24:55.929Z,7.20
2022-09-24T06:27:22.875Z,7.23
2022-09-24T06:29:49.776Z,6.80
2022-09-24T06:32:18.755Z,7.10
2022-09-24T06:34:45.761Z,7.53
2022-09-24T06:37:12.654Z,7.60
2022-09-24T06:39:39.569Z,6.73
2022-09-24T06:42:07.162Z,6.70
2022-09-24T06:44:34.885Z,8.00
2022-09-24T06:47:01.995Z,6.90
2022-09-24T06:49:33.753Z,7.67
2022-09-24T06:52:02.297Z,6.87
2022-09-24T06:54:29.213Z,6.50
2022-09-24T06:56:56.091Z,7.70
2022-09-24T06:59:23.010Z,6.53
2022-09-24T07:01:49.926Z,6.80
2022-09-24T07:04:16.949Z,7.63
2022-09-24T07:07:02.352Z,7.47
2022-09-24T07:09:29.314Z,7.13
2022-09-24T07:11:58.932Z,7.40
2022-09-24T07:14:25.823Z,7.90
2022-09-24T07:16:54.009Z,8.03
2022-09-24T07:19:20.941Z,7.40
2022-09-24T07:21:47.871Z,7.33
2022-09-24T07:24:14.904Z,7.80
2022-09-24T07:26:42.008Z,7.47
2022-09-24T07:29:08.963Z,7.47
2022-09-24T07:31:36.523Z,7.40
2022-09-24T07:34:03.559Z,7.40
2022-09-24T07:36:31.402Z,8.17
2022-09-24T07:38:58.879Z,7.10
2022-09-24T07:41:25.908Z,7.90
2022-09-24T07:43:55.296Z,7.80
2022-09-24T07:46:22.401Z,8.40
2022-09-24T07:48:49.433Z,7.83
2022-09-24T07:51:16.574Z,7.40
2022-09-24T07:53:43.536Z,8.40
2022-09-24T07:56:11.064Z,8.20
2022-09-24T07:58:37.974Z,8.87
2022-09-24T08:01:04.847Z,8.07
2022-09-24T08:03:32.356Z,8.20
2022-09-24T08:06:01.680Z,8.37
2022-09-24T08:08:28.673Z,7.83
2022-09-24T08:10:55.595Z,8.87
2022-09-24T08:13:26.860Z,8.00
2022-09-24T08:16:02.255Z,8.87
2022-09-24T08:18:31.888Z,8.60
2022-09-24T08:21:11.776Z,9.13
2022-09-24T08:23:42.341Z,7.70
2022-09-24T08:26:11.184Z,9.43
2022-09-24T08:28:39.726Z,8.30
2022-09-24T08:31:09.132Z,7.93
2022-09-24T08:33:37.479Z,9.10
2022-09-24T08:36:08.065Z,8.00
2022-09-24T08:38:35.628Z,7.20
2022-09-24T08:41:21.272Z,7.37
2022-09-24T08:44:08.534Z,8.17
2022-09-24T08:47:09.085Z,7.47
2022-09-24T08:49:44.060Z,7.13
2022-09-24T08:52:41.774Z,7.93
2022-09-24T08:55:38.520Z,8.27
2022-09-24T08:58:16.967Z,9.20
2022-09-24T09:00:53.226Z,8.03
2022-09-24T09:03:32.141Z,8.90
2022-09-24T09:06:12.323Z,9.10
2022-09-24T09:09:11.865Z,7.17
2022-09-24T09:11:41.303Z,7.60
2022-09-24T09:14:17.576Z,8.17
2022-09-24T09:16:52.803Z,8.23
2022-09-24T09:19:26.681Z,7.90
2022-09-24T09:22:01.988Z,7.70
2022-09-24T09:24:50.154Z,8.50
2022-09-24T09:27:19.042Z,8.50
2022-09-24T09:29:56.472Z,7.57
2022-09-24T09:32:41.447Z,8.00
2022-09-24T09:35:38.112Z,7.23
2022-09-24T09:38:40.609Z,7.80
2022-09-24T09:41:20.850Z,7.80
2022-09-24T09:43:47.865Z,8.70
2022-09-24T09:46:38.082Z,8.50
2022-09-24T09:49:08.744Z,7.83
2022-09-24T09:51:42.293Z,8.00
2022-09-24T09:54:09.783Z,7.60
2022-09-24T09:56:49.198Z,8.33
2022-09-24T09:59:27.233Z,8.40
2022-09-24T10:01:57.548Z,7.80
2022-09-24T10:04:36.079Z,8.70
2022-09-24T10:07:23.737Z,7.50
2022-09-24T10:10:18.504Z,7.83
2022-09-24T10:12:45.429Z,8.00
2022-09-24T10:15:15.487Z,7.57
2022-09-24T10:17:44.080Z,7.67
2022-09-24T10:20:31.411Z,7.27
2022-09-24T10:23:08.290Z,7.47
2022-09-24T10:25:36.414Z,7.43
2022-09-24T10:28:27.656Z,7.43
2022-09-24T10:31:06.413Z,8.20
2022-09-24T10:33:43.340Z,7.03
2022-09-24T10:36:33.974Z,6.60
2022-09-24T10:39:15.615Z,8.10
2022-09-24T10:41:54.201Z,6.70
2022-09-24T10:44:21.871Z,7.67
2022-09-24T10:47:09.104Z,7.50
2022-09-24T10:49:50.832Z,6.57
2022-09-24T10:53:00.752Z,6.43
2022-09-24T10:55:52.488Z,7.33
2022-09-24T10:59:05.845Z,7.20
2022-09-24T11:02:13.469Z,6.23
2022-09-24T11:05:00.582Z,7.03
2022-09-24T11:08:17.501Z,6.53
2022-09-24T11:11:00.062Z,6.10
2022-09-24T11:13:41.943Z,6.13
2022-09-24T11:16:43.373Z,6.20
2022-09-24T11:19:16.096Z,6.40
2022-09-24T11:22:08.468Z,6.97
2022-09-24T11:25:22.121Z,6.23
2022-09-24T11:28:10.464Z,5.83
2022-09-24T11:31:18.501Z,6.33
2022-09-24T11:33:53.945Z,6.60
2022-09-24T11:37:15.618Z,5.27
2022-09-24T11:40:38.608Z,6.00
2022-09-24T11:43:32.832Z,5.03
2022-09-24T11:46:22.699Z,5.13
2022-09-24T11:49:13.053Z,5.97
2022-09-24T11:52:03.096Z,5.00
2022-09-24T11:55:10.793Z,5.90
2022-09-24T11:57:50.210Z,6.07
2022-09-24T12:00:20.293Z,5.60
2022-09-24T12:02:55.049Z,5.70
2022-09-24T12:05:35.887Z,6.93
2022-09-24T12:08:30.094Z,6.57
2022-09-24T12:11:20.702Z,6.37
2022-09-24T12:13:58.513Z,7.07
2022-09-24T12:16:29.433Z,11.23
2022-09-24T12:19:06.592Z,5.57
2022-09-24T12:21:43.379Z,6.80
2022-09-24T12:24:41.855Z,6.40
2022-09-24T12:27:28.302Z,6.30
2022-09-24T12:30:35.085Z,6.33
2022-09-24T12:33:21.131Z,7.10
2022-09-24T12:36:08.516Z,5.70
2022-09-24T12:38:57.705Z,5.50
2022-09-24T12:41:38.405Z,6.30
2022-09-24T12:44:22.162Z,5.60
2022-09-24T12:46:54.831Z,6.00
2022-09-24T12:49:24.779Z,6.33
2022-09-24T12:52:01.931Z,6.27
2022-09-24T12:54:37.801Z,6.43
2022-09-24T12:57:22.695Z,14.20
2022-09-24T12:59:59.144Z,7.80
2022-09-24T13:02:46.130Z,5.70
2022-09-24T13:05:42.324Z,5.70
2022-09-24T13:08:19.963Z,7.37
2022-09-24T13:11:05.807Z,6.30
2022-09-24T13:13:43.402Z,6.53
2022-09-24T13:16:21.191Z,6.50
2022-09-24T13:19:00.181Z,6.57
2022-09-24T13:21:29.796Z,8.87
2022-09-24T13:23:57.857Z,6.43
2022-09-24T13:26:34.055Z,5.87
2022-09-24T13:29:03.261Z,6.90
2022-09-24T13:31:54.962Z,7.00
2022-09-24T13:34:29.894Z,7.37
2022-09-24T13:37:26.516Z,7.00
2022-09-24T13:40:04.317Z,7.23
2022-09-24T13:43:07.442Z,6.90
2022-09-24T13:45:36.783Z,6.67
2022-09-24T13:48:22.987Z,6.97
2022-09-24T13:50:52.846Z,6.10
2022-09-24T13:53:40.952Z,7.30
2022-09-24T13:56:18.937Z,7.20
2022-09-24T13:58:47.172Z,6.57
2022-09-24T14:01:20.781Z,6.23
2022-09-24T14:04:00.020Z,6.03
2022-09-24T14:06:42.702Z,6.97
2022-09-24T14:09:36.247Z,7.00
2022-09-24T14:12:16.182Z,7.10
2022-09-24T14:14:49.628Z,7.07
2022-09-24T14:17:16.822Z,6.83
2022-09-24T14:19:43.766Z,7.57
2022-09-24T14:22:20.517Z,6.53
2022-09-24T14:25:15.272Z,7.83
2022-09-24T14:27:48.192Z,6.73
2022-09-24T14:30:26.115Z,7.20
2022-09-24T14:33:00.913Z,6.73
2022-09-24T14:35:37.464Z,7.37
2022-09-24T14:38:17.945Z,5.80
2022-09-24T14:41:08.845Z,5.47
2022-09-24T14:43:45.198Z,5.50
2022-09-24T14:46:22.548Z,6.70
2022-09-24T14:48:49.742Z,5.60
2022-09-24T14:51:26.861Z,5.50
2022-09-24T14:54:31.154Z,6.00
2022-09-24T14:57:24.876Z,6.03
2022-09-24T14:59:52.494Z,6.30
2022-09-24T15:02:50.603Z,6.03
2022-09-24T15:05:17.815Z,5.90
2022-09-24T15:07:44.997Z,5.60
2022-09-24T15:10:22.492Z,6.10
2022-09-24T15:12:52.012Z,6.47
2022-09-24T15:15:20.808Z,6.47
2022-09-24T15:17:47.889Z,5.60
2022-09-24T15:20:15.016Z,7.20
2022-09-24T15:22:41.975Z,6.10
2022-09-24T15:25:10.188Z,5.80
2022-09-24T15:27:39.989Z,6.20
2022-09-24T15:30:12.054Z,6.77
2022-09-24T15:32:38.962Z,6.60
2022-09-24T15:35:09.384Z,15.37
2022-09-24T15:37:39.385Z,8.77
2022-09-24T15:40:30.671Z,6.20
2022-09-24T15:42:57.694Z,6.87
2022-09-24T15:45:25.613Z,6.50
2022-09-24T15:47:53.808Z,6.17
2022-09-24T15:50:22.700Z,6.67
2022-09-24T15:53:01.326Z,6.30
2022-09-24T15:55:28.941Z,6.20
2022-09-24T15:57:55.888Z,7.77
2022-09-24T16:00:25.170Z,8.63
2022-09-24T16:02:56.422Z,6.70
2022-09-24T16:05:25.362Z,7.00
2022-09-24T16:07:52.297Z,7.73
2022-09-24T16:10:19.308Z,8.07
2022-09-24T16:12:46.325Z,6.80
2022-09-24T16:15:15.687Z,6.67
2022-09-24T16:17:43.247Z,7.00
2022-09-24T16:20:10.498Z,6.97
2022-09-24T16:22:37.775Z,7.40
2022-09-24T16:25:05.552Z,7.70
2022-09-24T16:27:34.447Z,7.73
2022-09-24T16:30:02.574Z,6.73
2022-09-24T16:32:29.540Z,8.43
2022-09-24T16:34:56.990Z,7.00
2022-09-24T16:37:25.300Z,7.47
2022-09-24T16:39:52.819Z,7.27
2022-09-24T16:42:19.707Z,7.60
2022-09-24T16:44:46.775Z,8.03
2022-09-24T16:47:17.678Z,6.27
2022-09-24T16:49:44.642Z,8.10
2022-09-24T16:52:11.605Z,8.70
2022-09-24T16:54:38.616Z,9.10
2022-09-24T16:57:06.282Z,8.20
2022-09-24T16:59:34.057Z,8.40
2022-09-24T17:02:01.670Z,7.23
2022-09-24T17:04:28.710Z,8.83
2022-09-24T17:06:57.464Z,8.40
2022-09-24T17:09:42.800Z,9.10
2022-09-24T17:12:11.040Z,9.45
2022-09-24T17:14:38.846Z,9.00
2022-09-24T17:17:06.520Z,8.57
2022-09-24T17:19:33.544Z,7.63
2022-09-24T17:22:00.565Z,7.90
2022-09-24T17:24:27.642Z,7.63
2022-09-24T17:26:55.100Z,8.70
2022-09-24T17:29:22.239Z,7.17
2022-09-24T17:31:49.391Z,7.47
2022-09-24T17:34:16.445Z,8.30
2022-09-24T17:36:43.748Z,9.30
2022-09-24T17:39:13.390Z,8.60
2022-09-24T17:41:40.617Z,10.03
2022-09-24T17:44:09.357Z,8.40
2022-09-24T17:46:36.395Z,9.37
2022-09-24T17:49:03.942Z,10.50
2022-09-24T17:51:34.062Z,10.00
2022-09-24T17:54:05.188Z,10.13
2022-09-24T17:56:33.652Z,10.70
2022-09-24T17:59:00.887Z,13.70
2022-09-24T18:01:33.456Z,15.80
2022-09-24T18:04:00.694Z,20.40
2022-09-24T18:06:33.051Z,12.50
2022-09-24T18:09:01.312Z,12.10
2022-09-24T18:11:43.560Z,10.63
2022-09-24T18:14:16.921Z,11.03
2022-09-24T18:16:45.134Z,10.90
2022-09-24T18:19:15.864Z,12.07
2022-09-24T18:21:43.595Z,12.03
2022-09-24T18:24:11.115Z,10.30
2022-09-24T18:26:39.915Z,11.30
2022-09-24T18:29:13.842Z,11.03
2022-09-24T18:31:41.443Z,11.77
2022-09-24T18:34:13.006Z,11.10
2022-09-24T18:36:42.298Z,11.93
2022-09-24T18:39:13.289Z,11.70
2022-09-24T18:41:41.833Z,11.17
2022-09-24T18:44:09.711Z,12.83
2022-09-24T18:46:36.774Z,12.30
2022-09-24T18:49:06.206Z,11.47
2022-09-24T18:51:36.197Z,11.57
2022-09-24T18:54:10.994Z,11.17
2022-09-24T18:56:38.201Z,11.67
2022-09-24T18:59:10.679Z,11.70
2022-09-24T19:01:39.447Z,10.70
2022-09-24T19:04:10.869Z,10.30
2022-09-24T19:06:41.864Z,10.50
2022-09-24T19:09:11.662Z,9.97
2022-09-24T19:11:38.865Z,10.67
2022-09-24T19:14:05.773Z,10.93
2022-09-24T19:16:33.585Z,11.90
2022-09-24T19:19:01.575Z,11.50
2022-09-24T19:21:28.835Z,10.70
2022-09-24T19:23:58.207Z,11.00
2022-09-24T19:26:29.562Z,10.00
2022-09-24T19:28:57.431Z,11.97
2022-09-24T19:31:31.293Z,12.40
2022-09-24T19:34:03.012Z,12.03
2022-09-24T19:36:31.152Z,11.10
2022-09-24T19:38:58.070Z,10.30
2022-09-24T19:41:26.557Z,13.13
2022-09-24T19:44:03.174Z,11.37
2022-09-24T19:46:32.495Z,10.13
2022-09-24T19:48:59.731Z,11.30
2022-09-24T19:51:32.532Z,10.47
2022-09-24T19:54:06.428Z,11.67
2022-09-24T19:56:34.009Z,10.60
2022-09-24T19:59:02.088Z,10.07
2022-09-24T20:01:32.807Z,10.70
2022-09-24T20:04:04.628Z,9.50
2022-09-24T20:06:34.419Z,11.20
2022-09-24T20:09:01.400Z,10.40
2022-09-24T20:11:32.173Z,11.53
2022-09-24T20:13:59.340Z,10.57
2022-09-24T20:16:31.070Z,10.73
2022-09-24T20:18:58.138Z,10.63
2022-09-24T20:21:28.347Z,12.70
2022-09-24T20:23:57.664Z,12.60
2022-09-24T20:26:44.709Z,12.00
2022-09-24T20:29:13.846Z,14.40
2022-09-24T20:31:47.270Z,14.60
2022-09-24T20:34:14.172Z,12.10
2022-09-24T20:36:41.083Z,12.37
2022-09-24T20:39:07.971Z,12.57
2022-09-24T20:41:35.288Z,12.67
2022-09-24T20:44:02.277Z,13.73
2022-09-24T20:46:29.879Z,13.20
2022-09-24T20:48:59.940Z,12.23
2022-09-24T20:51:33.580Z,14.00
2022-09-24T20:54:00.907Z,15.13
2022-09-24T20:56:30.423Z,16.40
2022-09-24T20:58:57.404Z,15.73
2022-09-24T21:01:24.998Z,15.60
2022-09-24T21:03:52.930Z,14.57
2022-09-24T21:06:23.573Z,13.30
2022-09-24T21:08:51.995Z,13.00
2022-09-24T21:11:27.782Z,12.70
2022-09-24T21:14:00.597Z,12.93
2022-09-24T21:16:31.925Z,12.43
2022-09-24T21:19:00.569Z,13.30
2022-09-24T21:21:32.588Z,13.57
2022-09-24T21:24:01.323Z,12.90
2022-09-24T21:26:34.283Z,13.47
2022-09-24T21:29:23.327Z,14.60
2022-09-24T21:31:50.225Z,15.87
2022-09-24T21:34:20.805Z,16.37
2022-09-24T21:36:48.121Z,15.10
2022-09-24T21:39:18.902Z,15.73
2022-09-24T21:41:51.286Z,15.27
2022-09-24T21:44:19.386Z,15.87
2022-09-24T21:46:47.633Z,16.07
2022-09-24T21:49:16.896Z,15.93
2022-09-24T21:51:44.185Z,16.83
2022-09-24T21:54:17.363Z,17.03
2022-09-24T21:56:45.566Z,16.13
2022-09-24T21:59:31.340Z,18.60
2022-09-24T22:01:58.906Z,16.30
2022-09-24T22:04:26.023Z,17.03
2022-09-24T22:06:52.976Z,16.87
2022-09-24T22:09:20.228Z,16.00
2022-09-24T22:11:47.226Z,16.00
2022-09-24T22:14:14.656Z,15.77
2022-09-24T22:16:41.678Z,12.30
2022-09-24T22:19:09.381Z,16.10
2022-09-24T22:21:36.938Z,16.03
2022-09-24T22:24:05.385Z,13.87
2022-09-24T22:26:32.799Z,12.47
2022-09-24T22:29:01.397Z,12.07
2022-09-24T22:31:28.307Z,11.60
2022-09-24T22:34:14.227Z,12.60
2022-09-24T22:36:41.425Z,12.20
2022-09-24T22:39:08.864Z,10.43
2022-09-24T22:41:39.988Z,10.90
2022-09-24T22:44:07.699Z,10.93
2022-09-24T22:46:36.433Z,11.90
2022-09-24T22:49:05.391Z,10.80
2022-09-24T22:51:33.654Z,11.10
2022-09-24T22:54:00.577Z,9.50
2022-09-24T22:56:28.365Z,11.00
2022-09-24T22:58:58.595Z,11.30
2022-09-24T23:01:40.697Z,12.90
2022-09-24T23:04:08.288Z,13.07
2022-09-24T23:06:35.509Z,11.47
2022-09-24T23:09:03.063Z,10.77
2022-09-24T23:11:33.654Z,10.83
2022-09-24T23:14:07.102Z,10.77
2022-09-24T23:16:36.982Z,10.47
2022-09-24T23:19:14.174Z,10.40
2022-09-24T23:21:41.585Z,10.30
2022-09-24T23:24:18.986Z,9.60
2022-09-24T23:26:46.730Z,11.07
2022-09-24T23:29:14.786Z,9.83
2022-09-24T23:31:41.910Z,11.30
2022-09-24T23:34:10.739Z,10.80
2022-09-24T23:36:37.891Z,10.20
2022-09-24T23:39:05.168Z,11.03
2022-09-24T23:41:32.461Z,10.47
2022-09-24T23:43:59.989Z,10.73
2022-09-24T23:46:27.776Z,10.00
2022-09-24T23:48:55.178Z,10.97
2022-09-24T23:51:22.933Z,9.80
2022-09-24T23:53:50.119Z,10.57
2022-09-24T23:56:17.494Z,9.97
2022-09-24T23:58:44.505Z,10.50
